sensor_id;sensor_type;location;lat;lon;timestamp;P1;durP1;ratioP1;P2;durP2;ratioP2
2762;SDS011;1389;51.490;7.338;2023-12-14T00:02:21;766.65;;;198.18;;
2762;SDS011;1389;51.490;7.338;2023-12-14T00:04:48;765.35;;;197.30;;
2762;SDS011;1389;51.490;7.338;2023-12-14T00:07:14;765.10;;;196.55;;
2762;SDS011;1389;51.490;7.338;2023-12-14T00:09:41;765.00;;;196.02;;
2762;SDS011;1389;51.490;7.338;2023-12-14T00:12:08;764.08;;;195.68;;
2762;SDS011;1389;51.490;7.338;2023-12-14T00:14:35;765.50;;;195.90;;
2762;SDS011;1389;51.490;7.338;2023-12-14T00:17:01;765.70;;;196.60;;
2762;SDS011;1389;51.490;7.338;2023-12-14T00:19:28;764.47;;;195.75;;
2762;SDS011;1389;51.490;7.338;2023-12-14T00:21:54;763.13;;;194.77;;
2762;SDS011;1389;51.490;7.338;2023-12-14T00:24:21;762.08;;;195.80;;
2762;SDS011;1389;51.490;7.338;2023-12-14T00:26:47;760.90;;;195.60;;
2762;SDS011;1389;51.490;7.338;2023-12-14T00:29:14;760.60;;;195.88;;
2762;SDS011;1389;51.490;7.338;2023-12-14T00:31:41;759.33;;;194.90;;
2762;SDS011;1389;51.490;7.338;2023-12-14T00:34:07;758.20;;;195.10;;
2762;SDS011;1389;51.490;7.338;2023-12-14T00:36:34;759.35;;;195.55;;
2762;SDS011;1389;51.490;7.338;2023-12-14T00:39:00;757.70;;;195.40;;
2762;SDS011;1389;51.490;7.338;2023-12-14T00:41:27;758.90;;;193.90;;
2762;SDS011;1389;51.490;7.338;2023-12-14T00:43:53;760.65;;;193.90;;
2762;SDS011;1389;51.490;7.338;2023-12-14T00:46:20;760.90;;;195.27;;
2762;SDS011;1389;51.490;7.338;2023-12-14T00:48:46;761.30;;;194.90;;
2762;SDS011;1389;51.490;7.338;2023-12-14T00:51:13;760.70;;;194.00;;
2762;SDS011;1389;51.490;7.338;2023-12-14T00:53:39;762.38;;;193.82;;
2762;SDS011;1389;51.490;7.338;2023-12-14T00:56:07;763.33;;;194.83;;
2762;SDS011;1389;51.490;7.338;2023-12-14T00:58:34;762.85;;;194.05;;
2762;SDS011;1389;51.490;7.338;2023-12-14T01:01:00;763.57;;;194.63;;
2762;SDS011;1389;51.490;7.338;2023-12-14T01:03:27;763.10;;;195.27;;
2762;SDS011;1389;51.490;7.338;2023-12-14T01:05:53;762.83;;;195.80;;
2762;SDS011;1389;51.490;7.338;2023-12-14T01:08:20;762.33;;;195.50;;
2762;SDS011;1389;51.490;7.338;2023-12-14T01:10:46;762.13;;;196.05;;
2762;SDS011;1389;51.490;7.338;2023-12-14T01:13:13;762.10;;;196.13;;
2762;SDS011;1389;51.490;7.338;2023-12-14T01:15:39;761.20;;;196.30;;
2762;SDS011;1389;51.490;7.338;2023-12-14T01:18:06;761.00;;;194.97;;
2762;SDS011;1389;51.490;7.338;2023-12-14T01:20:32;762.80;;;195.50;;
2762;SDS011;1389;51.490;7.338;2023-12-14T01:22:59;762.85;;;195.45;;
2762;SDS011;1389;51.490;7.338;2023-12-14T01:25:25;762.35;;;195.50;;
2762;SDS011;1389;51.490;7.338;2023-12-14T01:27:52;763.13;;;195.20;;
2762;SDS011;1389;51.490;7.338;2023-12-14T01:30:19;762.35;;;193.50;;
2762;SDS011;1389;51.490;7.338;2023-12-14T01:32:45;763.97;;;195.63;;
2762;SDS011;1389;51.490;7.338;2023-12-14T01:35:12;763.10;;;195.23;;
2762;SDS011;1389;51.490;7.338;2023-12-14T01:37:38;762.05;;;194.50;;
2762;SDS011;1389;51.490;7.338;2023-12-14T01:40:05;761.40;;;194.18;;
2762;SDS011;1389;51.490;7.338;2023-12-14T01:42:32;761.67;;;194.57;;
2762;SDS011;1389;51.490;7.338;2023-12-14T01:44:58;761.10;;;193.80;;
2762;SDS011;1389;51.490;7.338;2023-12-14T01:47:25;759.67;;;193.00;;
2762;SDS011;1389;51.490;7.338;2023-12-14T01:49:51;759.85;;;194.10;;
2762;SDS011;1389;51.490;7.338;2023-12-14T01:52:18;760.20;;;194.10;;
2762;SDS011;1389;51.490;7.338;2023-12-14T01:54:44;759.90;;;193.77;;
2762;SDS011;1389;51.490;7.338;2023-12-14T01:57:11;759.67;;;192.52;;
2762;SDS011;1389;51.490;7.338;2023-12-14T01:59:37;760.30;;;192.93;;
2762;SDS011;1389;51.490;7.338;2023-12-14T02:02:04;761.10;;;192.07;;
2762;SDS011;1389;51.490;7.338;2023-12-14T02:04:31;761.30;;;192.43;;
2762;SDS011;1389;51.490;7.338;2023-12-14T02:06:57;760.60;;;192.10;;
2762;SDS011;1389;51.490;7.338;2023-12-14T02:09:24;759.70;;;190.95;;
2762;SDS011;1389;51.490;7.338;2023-12-14T02:11:51;759.10;;;190.48;;
2762;SDS011;1389;51.490;7.338;2023-12-14T02:14:17;759.60;;;190.82;;
2762;SDS011;1389;51.490;7.338;2023-12-14T02:16:44;760.30;;;190.88;;
2762;SDS011;1389;51.490;7.338;2023-12-14T02:19:10;762.03;;;190.55;;
2762;SDS011;1389;51.490;7.338;2023-12-14T02:21:37;761.70;;;190.40;;
2762;SDS011;1389;51.490;7.338;2023-12-14T02:24:03;761.50;;;191.30;;
2762;SDS011;1389;51.490;7.338;2023-12-14T02:26:30;761.00;;;190.10;;
2762;SDS011;1389;51.490;7.338;2023-12-14T02:28:57;760.55;;;189.80;;
2762;SDS011;1389;51.490;7.338;2023-12-14T02:31:23;760.40;;;189.88;;
2762;SDS011;1389;51.490;7.338;2023-12-14T02:33:50;759.92;;;187.80;;
2762;SDS011;1389;51.490;7.338;2023-12-14T02:36:16;761.03;;;187.20;;
2762;SDS011;1389;51.490;7.338;2023-12-14T02:38:43;762.30;;;187.10;;
2762;SDS011;1389;51.490;7.338;2023-12-14T02:41:10;763.30;;;187.00;;
2762;SDS011;1389;51.490;7.338;2023-12-14T02:43:36;762.90;;;187.50;;
2762;SDS011;1389;51.490;7.338;2023-12-14T02:46:03;761.97;;;187.18;;
2762;SDS011;1389;51.490;7.338;2023-12-14T02:48:30;761.83;;;187.80;;
2762;SDS011;1389;51.490;7.338;2023-12-14T02:50:56;759.70;;;187.02;;
2762;SDS011;1389;51.490;7.338;2023-12-14T02:53:25;760.80;;;187.97;;
2762;SDS011;1389;51.490;7.338;2023-12-14T02:55:52;760.70;;;188.50;;
2762;SDS011;1389;51.490;7.338;2023-12-14T02:58:18;761.17;;;187.65;;
2762;SDS011;1389;51.490;7.338;2023-12-14T03:00:45;761.20;;;188.50;;
2762;SDS011;1389;51.490;7.338;2023-12-14T03:03:12;759.35;;;186.77;;
2762;SDS011;1389;51.490;7.338;2023-12-14T03:05:38;760.33;;;189.40;;
2762;SDS011;1389;51.490;7.338;2023-12-14T03:08:05;758.70;;;187.00;;
2762;SDS011;1389;51.490;7.338;2023-12-14T03:10:31;758.90;;;187.07;;
2762;SDS011;1389;51.490;7.338;2023-12-14T03:12:58;759.90;;;187.93;;
2762;SDS011;1389;51.490;7.338;2023-12-14T03:15:24;760.35;;;189.38;;
2762;SDS011;1389;51.490;7.338;2023-12-14T03:17:51;760.78;;;188.00;;
2762;SDS011;1389;51.490;7.338;2023-12-14T03:20:17;760.50;;;186.83;;
2762;SDS011;1389;51.490;7.338;2023-12-14T03:22:44;761.10;;;188.20;;
2762;SDS011;1389;51.490;7.338;2023-12-14T03:25:10;760.65;;;188.07;;
2762;SDS011;1389;51.490;7.338;2023-12-14T03:27:37;760.90;;;188.73;;
2762;SDS011;1389;51.490;7.338;2023-12-14T03:30:03;761.35;;;189.70;;
2762;SDS011;1389;51.490;7.338;2023-12-14T03:32:33;760.40;;;189.50;;
2762;SDS011;1389;51.490;7.338;2023-12-14T03:35:00;759.40;;;189.10;;
2762;SDS011;1389;51.490;7.338;2023-12-14T03:37:26;758.90;;;189.40;;
2762;SDS011;1389;51.490;7.338;2023-12-14T03:39:53;760.00;;;190.02;;
2762;SDS011;1389;51.490;7.338;2023-12-14T03:42:20;759.25;;;190.00;;
2762;SDS011;1389;51.490;7.338;2023-12-14T03:44:46;759.20;;;189.18;;
2762;SDS011;1389;51.490;7.338;2023-12-14T03:47:13;759.10;;;188.65;;
2762;SDS011;1389;51.490;7.338;2023-12-14T03:49:39;756.83;;;187.52;;
2762;SDS011;1389;51.490;7.338;2023-12-14T03:52:06;758.00;;;190.20;;
2762;SDS011;1389;51.490;7.338;2023-12-14T03:54:33;756.70;;;189.10;;
2762;SDS011;1389;51.490;7.338;2023-12-14T03:56:59;758.10;;;188.40;;
2762;SDS011;1389;51.490;7.338;2023-12-14T03:59:26;759.20;;;188.32;;
2762;SDS011;1389;51.490;7.338;2023-12-14T04:01:52;759.00;;;187.48;;
2762;SDS011;1389;51.490;7.338;2023-12-14T04:04:19;757.83;;;185.80;;
2762;SDS011;1389;51.490;7.338;2023-12-14T04:06:45;759.17;;;187.48;;
2762;SDS011;1389;51.490;7.338;2023-12-14T04:09:12;758.30;;;185.70;;
2762;SDS011;1389;51.490;7.338;2023-12-14T04:11:38;760.50;;;187.00;;
2762;SDS011;1389;51.490;7.338;2023-12-14T04:14:05;758.90;;;186.38;;
2762;SDS011;1389;51.490;7.338;2023-12-14T04:16:32;758.30;;;185.95;;
2762;SDS011;1389;51.490;7.338;2023-12-14T04:18:58;758.90;;;187.02;;
2762;SDS011;1389;51.490;7.338;2023-12-14T04:21:25;757.80;;;185.70;;
2762;SDS011;1389;51.490;7.338;2023-12-14T04:23:51;757.55;;;187.30;;
2762;SDS011;1389;51.490;7.338;2023-12-14T04:26:18;757.55;;;187.40;;
2762;SDS011;1389;51.490;7.338;2023-12-14T04:28:44;757.80;;;187.70;;
2762;SDS011;1389;51.490;7.338;2023-12-14T04:31:11;757.60;;;186.60;;
2762;SDS011;1389;51.490;7.338;2023-12-14T04:33:38;757.20;;;187.32;;
2762;SDS011;1389;51.490;7.338;2023-12-14T04:36:05;756.80;;;187.35;;
2762;SDS011;1389;51.490;7.338;2023-12-14T04:38:32;756.50;;;188.00;;
2762;SDS011;1389;51.490;7.338;2023-12-14T04:40:58;755.50;;;187.02;;
2762;SDS011;1389;51.490;7.338;2023-12-14T04:43:25;755.08;;;187.13;;
2762;SDS011;1389;51.490;7.338;2023-12-14T04:45:55;756.90;;;187.60;;
2762;SDS011;1389;51.490;7.338;2023-12-14T04:48:21;757.00;;;187.30;;
2762;SDS011;1389;51.490;7.338;2023-12-14T04:50:48;757.10;;;187.10;;
2762;SDS011;1389;51.490;7.338;2023-12-14T04:53:14;756.50;;;186.90;;
2762;SDS011;1389;51.490;7.338;2023-12-14T04:55:41;755.20;;;186.60;;
2762;SDS011;1389;51.490;7.338;2023-12-14T04:58:07;754.17;;;186.48;;
2762;SDS011;1389;51.490;7.338;2023-12-14T05:00:34;753.70;;;186.60;;
2762;SDS011;1389;51.490;7.338;2023-12-14T05:03:00;754.42;;;186.40;;
2762;SDS011;1389;51.490;7.338;2023-12-14T05:05:27;755.35;;;186.48;;
2762;SDS011;1389;51.490;7.338;2023-12-14T05:07:53;753.80;;;186.00;;
2762;SDS011;1389;51.490;7.338;2023-12-14T05:10:20;754.75;;;185.68;;
2762;SDS011;1389;51.490;7.338;2023-12-14T05:12:46;756.00;;;187.40;;
2762;SDS011;1389;51.490;7.338;2023-12-14T05:15:13;755.20;;;186.90;;
2762;SDS011;1389;51.490;7.338;2023-12-14T05:17:40;755.80;;;187.98;;
2762;SDS011;1389;51.490;7.338;2023-12-14T05:20:09;755.15;;;186.50;;
2762;SDS011;1389;51.490;7.338;2023-12-14T05:22:36;756.60;;;188.05;;
2762;SDS011;1389;51.490;7.338;2023-12-14T05:25:03;753.80;;;184.82;;
2762;SDS011;1389;51.490;7.338;2023-12-14T05:27:30;756.00;;;186.80;;
2762;SDS011;1389;51.490;7.338;2023-12-14T05:29:56;755.50;;;185.02;;
2762;SDS011;1389;51.490;7.338;2023-12-14T05:32:23;756.07;;;184.83;;
2762;SDS011;1389;51.490;7.338;2023-12-14T05:34:49;756.15;;;185.18;;
2762;SDS011;1389;51.490;7.338;2023-12-14T05:37:16;755.33;;;184.50;;
2762;SDS011;1389;51.490;7.338;2023-12-14T05:39:42;756.30;;;185.00;;
2762;SDS011;1389;51.490;7.338;2023-12-14T05:42:10;756.00;;;184.30;;
2762;SDS011;1389;51.490;7.338;2023-12-14T05:44:37;756.05;;;184.48;;
2762;SDS011;1389;51.490;7.338;2023-12-14T05:47:03;756.70;;;185.50;;
2762;SDS011;1389;51.490;7.338;2023-12-14T05:49:30;754.90;;;183.80;;
2762;SDS011;1389;51.490;7.338;2023-12-14T05:51:58;756.20;;;186.60;;
2762;SDS011;1389;51.490;7.338;2023-12-14T05:54:25;756.70;;;186.45;;
2762;SDS011;1389;51.490;7.338;2023-12-14T05:56:51;755.90;;;185.10;;
2762;SDS011;1389;51.490;7.338;2023-12-14T05:59:18;756.50;;;185.80;;
2762;SDS011;1389;51.490;7.338;2023-12-14T06:01:44;756.92;;;186.18;;
2762;SDS011;1389;51.490;7.338;2023-12-14T06:04:11;757.15;;;187.00;;
2762;SDS011;1389;51.490;7.338;2023-12-14T06:06:38;756.75;;;186.80;;
2762;SDS011;1389;51.490;7.338;2023-12-14T06:09:05;756.70;;;186.90;;
2762;SDS011;1389;51.490;7.338;2023-12-14T06:11:33;755.97;;;185.40;;
2762;SDS011;1389;51.490;7.338;2023-12-14T06:13:59;756.75;;;186.45;;
2762;SDS011;1389;51.490;7.338;2023-12-14T06:16:26;756.08;;;185.10;;
2762;SDS011;1389;51.490;7.338;2023-12-14T06:18:52;755.83;;;185.75;;
2762;SDS011;1389;51.490;7.338;2023-12-14T06:21:19;755.35;;;185.40;;
2762;SDS011;1389;51.490;7.338;2023-12-14T06:23:46;755.17;;;185.70;;
2762;SDS011;1389;51.490;7.338;2023-12-14T06:26:12;754.60;;;185.18;;
2762;SDS011;1389;51.490;7.338;2023-12-14T06:28:39;754.63;;;185.20;;
2762;SDS011;1389;51.490;7.338;2023-12-14T06:31:05;754.60;;;185.95;;
2762;SDS011;1389;51.490;7.338;2023-12-14T06:33:33;753.70;;;184.88;;
2762;SDS011;1389;51.490;7.338;2023-12-14T06:36:02;754.15;;;183.95;;
2762;SDS011;1389;51.490;7.338;2023-12-14T06:38:30;754.13;;;184.30;;
2762;SDS011;1389;51.490;7.338;2023-12-14T06:40:56;754.20;;;185.10;;
2762;SDS011;1389;51.490;7.338;2023-12-14T06:43:23;754.30;;;185.05;;
2762;SDS011;1389;51.490;7.338;2023-12-14T06:45:50;754.42;;;184.50;;
2762;SDS011;1389;51.490;7.338;2023-12-14T06:48:16;755.60;;;184.75;;
2762;SDS011;1389;51.490;7.338;2023-12-14T06:50:44;755.55;;;183.82;;
2762;SDS011;1389;51.490;7.338;2023-12-14T06:53:11;756.03;;;183.20;;
2762;SDS011;1389;51.490;7.338;2023-12-14T06:55:37;756.10;;;182.37;;
2762;SDS011;1389;51.490;7.338;2023-12-14T06:58:04;756.38;;;182.82;;
2762;SDS011;1389;51.490;7.338;2023-12-14T07:00:34;757.35;;;183.88;;
2762;SDS011;1389;51.490;7.338;2023-12-14T07:03:00;755.80;;;182.80;;
2762;SDS011;1389;51.490;7.338;2023-12-14T07:05:27;753.95;;;182.15;;
2762;SDS011;1389;51.490;7.338;2023-12-14T07:07:53;753.60;;;181.80;;
2762;SDS011;1389;51.490;7.338;2023-12-14T07:10:22;754.97;;;182.93;;
2762;SDS011;1389;51.490;7.338;2023-12-14T07:12:48;755.58;;;182.93;;
2762;SDS011;1389;51.490;7.338;2023-12-14T07:15:15;755.37;;;182.17;;
2762;SDS011;1389;51.490;7.338;2023-12-14T07:17:41;755.30;;;182.30;;
2762;SDS011;1389;51.490;7.338;2023-12-14T07:20:09;754.90;;;181.35;;
2762;SDS011;1389;51.490;7.338;2023-12-14T07:22:36;754.75;;;181.45;;
2762;SDS011;1389;51.490;7.338;2023-12-14T07:25:03;755.28;;;182.80;;
2762;SDS011;1389;51.490;7.338;2023-12-14T07:27:30;753.92;;;181.63;;
2762;SDS011;1389;51.490;7.338;2023-12-14T07:29:57;754.88;;;181.80;;
2762;SDS011;1389;51.490;7.338;2023-12-14T07:32:23;754.90;;;181.90;;
2762;SDS011;1389;51.490;7.338;2023-12-14T07:34:50;755.22;;;182.00;;
2762;SDS011;1389;51.490;7.338;2023-12-14T07:37:16;755.00;;;182.00;;
2762;SDS011;1389;51.490;7.338;2023-12-14T07:39:43;754.15;;;181.50;;
2762;SDS011;1389;51.490;7.338;2023-12-14T07:42:09;752.95;;;180.05;;
2762;SDS011;1389;51.490;7.338;2023-12-14T07:44:36;754.17;;;181.65;;
2762;SDS011;1389;51.490;7.338;2023-12-14T07:47:03;754.50;;;182.30;;
2762;SDS011;1389;51.490;7.338;2023-12-14T07:49:29;755.40;;;182.00;;
2762;SDS011;1389;51.490;7.338;2023-12-14T07:51:56;756.80;;;181.70;;
2762;SDS011;1389;51.490;7.338;2023-12-14T07:54:22;757.40;;;181.52;;
2762;SDS011;1389;51.490;7.338;2023-12-14T07:56:51;756.70;;;180.35;;
2762;SDS011;1389;51.490;7.338;2023-12-14T07:59:17;757.25;;;181.18;;
2762;SDS011;1389;51.490;7.338;2023-12-14T08:01:44;757.40;;;181.80;;
2762;SDS011;1389;51.490;7.338;2023-12-14T08:04:11;757.90;;;181.70;;
2762;SDS011;1389;51.490;7.338;2023-12-14T08:06:37;757.20;;;180.15;;
2762;SDS011;1389;51.490;7.338;2023-12-14T08:09:07;758.20;;;181.38;;
2762;SDS011;1389;51.490;7.338;2023-12-14T08:11:34;758.00;;;181.00;;
2762;SDS011;1389;51.490;7.338;2023-12-14T08:14:00;759.08;;;182.20;;
2762;SDS011;1389;51.490;7.338;2023-12-14T08:16:28;757.60;;;179.40;;
2762;SDS011;1389;51.490;7.338;2023-12-14T08:18:55;757.90;;;179.60;;
2762;SDS011;1389;51.490;7.338;2023-12-14T08:21:21;758.50;;;179.05;;
2762;SDS011;1389;51.490;7.338;2023-12-14T08:23:48;756.85;;;177.18;;
2762;SDS011;1389;51.490;7.338;2023-12-14T08:26:14;757.50;;;178.77;;
2762;SDS011;1389;51.490;7.338;2023-12-14T08:28:41;757.15;;;179.65;;
2762;SDS011;1389;51.490;7.338;2023-12-14T08:31:08;757.10;;;179.32;;
2762;SDS011;1389;51.490;7.338;2023-12-14T08:33:37;757.72;;;179.15;;
2762;SDS011;1389;51.490;7.338;2023-12-14T08:36:04;757.90;;;179.80;;
2762;SDS011;1389;51.490;7.338;2023-12-14T08:38:31;757.60;;;179.38;;
2762;SDS011;1389;51.490;7.338;2023-12-14T08:40:57;757.30;;;179.10;;
2762;SDS011;1389;51.490;7.338;2023-12-14T08:43:24;757.20;;;178.67;;
2762;SDS011;1389;51.490;7.338;2023-12-14T08:45:50;756.58;;;179.15;;
2762;SDS011;1389;51.490;7.338;2023-12-14T08:48:17;755.80;;;177.70;;
2762;SDS011;1389;51.490;7.338;2023-12-14T08:50:44;755.90;;;178.93;;
2762;SDS011;1389;51.490;7.338;2023-12-14T08:53:11;755.03;;;178.70;;
2762;SDS011;1389;51.490;7.338;2023-12-14T08:55:37;755.70;;;179.23;;
2762;SDS011;1389;51.490;7.338;2023-12-14T08:58:04;755.30;;;178.70;;
2762;SDS011;1389;51.490;7.338;2023-12-14T09:00:30;755.40;;;177.50;;
2762;SDS011;1389;51.490;7.338;2023-12-14T09:02:57;756.70;;;178.43;;
2762;SDS011;1389;51.490;7.338;2023-12-14T09:05:23;755.90;;;177.20;;
2762;SDS011;1389;51.490;7.338;2023-12-14T09:07:50;755.05;;;176.40;;
2762;SDS011;1389;51.490;7.338;2023-12-14T09:10:20;755.60;;;177.70;;
2762;SDS011;1389;51.490;7.338;2023-12-14T09:12:47;756.10;;;178.10;;
2762;SDS011;1389;51.490;7.338;2023-12-14T09:15:13;756.93;;;177.90;;
2762;SDS011;1389;51.490;7.338;2023-12-14T09:17:41;756.50;;;177.30;;
2762;SDS011;1389;51.490;7.338;2023-12-14T09:20:08;756.03;;;177.30;;
2762;SDS011;1389;51.490;7.338;2023-12-14T09:22:36;756.45;;;176.77;;
2762;SDS011;1389;51.490;7.338;2023-12-14T09:25:03;756.90;;;177.00;;
2762;SDS011;1389;51.490;7.338;2023-12-14T09:27:29;755.85;;;176.00;;
2762;SDS011;1389;51.490;7.338;2023-12-14T09:29:56;749.28;;;164.23;;
2762;SDS011;1389;51.490;7.338;2023-12-14T09:32:23;756.90;;;175.43;;
2762;SDS011;1389;51.490;7.338;2023-12-14T09:34:49;751.33;;;165.75;;
2762;SDS011;1389;51.490;7.338;2023-12-14T09:37:17;746.67;;;159.18;;
2762;SDS011;1389;51.490;7.338;2023-12-14T09:39:44;747.30;;;159.60;;
2762;SDS011;1389;51.490;7.338;2023-12-14T09:42:11;746.55;;;159.23;;
2762;SDS011;1389;51.490;7.338;2023-12-14T09:44:38;745.75;;;159.43;;
2762;SDS011;1389;51.490;7.338;2023-12-14T09:47:05;745.40;;;159.00;;
2762;SDS011;1389;51.490;7.338;2023-12-14T09:49:31;745.47;;;158.35;;
2762;SDS011;1389;51.490;7.338;2023-12-14T09:51:58;747.45;;;159.55;;
2762;SDS011;1389;51.490;7.338;2023-12-14T09:54:26;749.20;;;161.80;;
2762;SDS011;1389;51.490;7.338;2023-12-14T09:56:53;746.70;;;158.90;;
2762;SDS011;1389;51.490;7.338;2023-12-14T09:59:20;748.50;;;159.98;;
2762;SDS011;1389;51.490;7.338;2023-12-14T10:01:47;748.20;;;159.80;;
2762;SDS011;1389;51.490;7.338;2023-12-14T10:04:14;747.40;;;159.80;;
2762;SDS011;1389;51.490;7.338;2023-12-14T10:06:42;747.40;;;159.63;;
2762;SDS011;1389;51.490;7.338;2023-12-14T10:09:08;747.70;;;160.30;;
2762;SDS011;1389;51.490;7.338;2023-12-14T10:11:39;746.90;;;160.20;;
2762;SDS011;1389;51.490;7.338;2023-12-14T10:14:22;746.10;;;159.75;;
2762;SDS011;1389;51.490;7.338;2023-12-14T10:16:50;751.92;;;167.95;;
2762;SDS011;1389;51.490;7.338;2023-12-14T10:19:17;746.70;;;158.40;;
2762;SDS011;1389;51.490;7.338;2023-12-14T10:21:43;747.40;;;159.63;;
2762;SDS011;1389;51.490;7.338;2023-12-14T10:24:12;746.73;;;159.50;;
2762;SDS011;1389;51.490;7.338;2023-12-14T10:26:39;746.60;;;159.30;;
2762;SDS011;1389;51.490;7.338;2023-12-14T10:29:06;747.10;;;160.70;;
2762;SDS011;1389;51.490;7.338;2023-12-14T10:31:33;747.15;;;160.30;;
2762;SDS011;1389;51.490;7.338;2023-12-14T10:34:03;756.22;;;173.70;;
2762;SDS011;1389;51.490;7.338;2023-12-14T10:36:31;747.70;;;160.00;;
2762;SDS011;1389;51.490;7.338;2023-12-14T10:38:58;747.50;;;159.20;;
2762;SDS011;1389;51.490;7.338;2023-12-14T10:41:25;747.17;;;158.90;;
2762;SDS011;1389;51.490;7.338;2023-12-14T10:43:53;748.63;;;159.60;;
2762;SDS011;1389;51.490;7.338;2023-12-14T10:46:20;748.95;;;159.80;;
2762;SDS011;1389;51.490;7.338;2023-12-14T10:48:47;748.70;;;159.80;;
2762;SDS011;1389;51.490;7.338;2023-12-14T10:51:14;751.83;;;164.93;;
2762;SDS011;1389;51.490;7.338;2023-12-14T10:53:41;758.60;;;175.50;;
2762;SDS011;1389;51.490;7.338;2023-12-14T10:56:14;748.10;;;159.63;;
2762;SDS011;1389;51.490;7.338;2023-12-14T10:58:51;748.20;;;160.10;;
2762;SDS011;1389;51.490;7.338;2023-12-14T11:01:19;746.55;;;158.95;;
2762;SDS011;1389;51.490;7.338;2023-12-14T11:03:46;746.75;;;160.60;;
2762;SDS011;1389;51.490;7.338;2023-12-14T11:06:20;747.00;;;160.60;;
2762;SDS011;1389;51.490;7.338;2023-12-14T11:08:48;747.92;;;160.70;;
2762;SDS011;1389;51.490;7.338;2023-12-14T11:11:14;747.20;;;159.50;;
2762;SDS011;1389;51.490;7.338;2023-12-14T11:13:52;752.03;;;166.65;;
2762;SDS011;1389;51.490;7.338;2023-12-14T11:16:22;748.13;;;160.30;;
2762;SDS011;1389;51.490;7.338;2023-12-14T11:19:05;746.90;;;159.80;;
2762;SDS011;1389;51.490;7.338;2023-12-14T11:21:36;747.20;;;160.60;;
2762;SDS011;1389;51.490;7.338;2023-12-14T11:24:02;752.70;;;168.70;;
2762;SDS011;1389;51.490;7.338;2023-12-14T11:26:29;747.20;;;161.43;;
2762;SDS011;1389;51.490;7.338;2023-12-14T11:28:55;752.08;;;168.82;;
2762;SDS011;1389;51.490;7.338;2023-12-14T11:31:22;757.63;;;177.35;;
2762;SDS011;1389;51.490;7.338;2023-12-14T11:33:49;757.50;;;177.50;;
2762;SDS011;1389;51.490;7.338;2023-12-14T11:36:15;751.97;;;168.85;;
2762;SDS011;1389;51.490;7.338;2023-12-14T11:38:42;752.80;;;170.93;;
2762;SDS011;1389;51.490;7.338;2023-12-14T11:41:09;749.95;;;167.40;;
2762;SDS011;1389;51.490;7.338;2023-12-14T11:43:42;748.60;;;164.38;;
2762;SDS011;1389;51.490;7.338;2023-12-14T11:46:10;756.10;;;176.73;;
2762;SDS011;1389;51.490;7.338;2023-12-14T11:48:37;755.88;;;177.40;;
2762;SDS011;1389;51.490;7.338;2023-12-14T11:51:03;756.70;;;177.82;;
2762;SDS011;1389;51.490;7.338;2023-12-14T11:53:30;756.90;;;177.32;;
2762;SDS011;1389;51.490;7.338;2023-12-14T11:55:58;757.27;;;177.20;;
2762;SDS011;1389;51.490;7.338;2023-12-14T11:58:28;757.47;;;176.82;;
2762;SDS011;1389;51.490;7.338;2023-12-14T12:00:54;747.80;;;160.70;;
2762;SDS011;1389;51.490;7.338;2023-12-14T12:03:21;748.17;;;160.70;;
2762;SDS011;1389;51.490;7.338;2023-12-14T12:05:48;747.70;;;159.80;;
2762;SDS011;1389;51.490;7.338;2023-12-14T12:08:15;748.40;;;159.40;;
2762;SDS011;1389;51.490;7.338;2023-12-14T12:10:44;747.60;;;157.45;;
2762;SDS011;1389;51.490;7.338;2023-12-14T12:13:13;748.50;;;158.63;;
2762;SDS011;1389;51.490;7.338;2023-12-14T12:15:39;749.35;;;161.13;;
2762;SDS011;1389;51.490;7.338;2023-12-14T12:18:06;754.88;;;167.82;;
2762;SDS011;1389;51.490;7.338;2023-12-14T12:20:33;748.60;;;158.50;;
2762;SDS011;1389;51.490;7.338;2023-12-14T12:23:00;753.10;;;165.68;;
2762;SDS011;1389;51.490;7.338;2023-12-14T12:25:27;748.40;;;159.30;;
2762;SDS011;1389;51.490;7.338;2023-12-14T12:27:54;748.80;;;160.50;;
2762;SDS011;1389;51.490;7.338;2023-12-14T12:30:21;747.20;;;159.10;;
2762;SDS011;1389;51.490;7.338;2023-12-14T12:32:49;747.60;;;158.95;;
2762;SDS011;1389;51.490;7.338;2023-12-14T12:35:19;748.70;;;159.75;;
2762;SDS011;1389;51.490;7.338;2023-12-14T12:37:45;751.75;;;163.25;;
2762;SDS011;1389;51.490;7.338;2023-12-14T12:40:12;749.37;;;159.93;;
2762;SDS011;1389;51.490;7.338;2023-12-14T12:42:41;749.70;;;160.10;;
2762;SDS011;1389;51.490;7.338;2023-12-14T12:45:08;749.92;;;160.07;;
2762;SDS011;1389;51.490;7.338;2023-12-14T12:47:35;750.30;;;160.35;;
2762;SDS011;1389;51.490;7.338;2023-12-14T12:50:01;750.95;;;161.07;;
2762;SDS011;1389;51.490;7.338;2023-12-14T12:52:28;749.63;;;159.13;;
2762;SDS011;1389;51.490;7.338;2023-12-14T12:54:54;749.97;;;159.18;;
2762;SDS011;1389;51.490;7.338;2023-12-14T12:57:21;750.00;;;158.52;;
2762;SDS011;1389;51.490;7.338;2023-12-14T12:59:47;750.33;;;158.75;;
2762;SDS011;1389;51.490;7.338;2023-12-14T13:02:14;750.70;;;159.20;;
2762;SDS011;1389;51.490;7.338;2023-12-14T13:04:40;750.60;;;159.70;;
2762;SDS011;1389;51.490;7.338;2023-12-14T13:07:07;749.90;;;159.10;;
2762;SDS011;1389;51.490;7.338;2023-12-14T13:09:34;749.30;;;158.82;;
2762;SDS011;1389;51.490;7.338;2023-12-14T13:12:00;749.50;;;159.10;;
2762;SDS011;1389;51.490;7.338;2023-12-14T13:14:27;749.50;;;159.45;;
2762;SDS011;1389;51.490;7.338;2023-12-14T13:16:53;749.60;;;159.80;;
2762;SDS011;1389;51.490;7.338;2023-12-14T13:19:22;749.10;;;159.50;;
2762;SDS011;1389;51.490;7.338;2023-12-14T13:21:49;749.50;;;160.50;;
2762;SDS011;1389;51.490;7.338;2023-12-14T13:24:15;752.20;;;164.60;;
2762;SDS011;1389;51.490;7.338;2023-12-14T13:26:42;749.80;;;160.30;;
2762;SDS011;1389;51.490;7.338;2023-12-14T13:29:08;749.53;;;159.43;;
2762;SDS011;1389;51.490;7.338;2023-12-14T13:31:35;750.40;;;159.40;;
2762;SDS011;1389;51.490;7.338;2023-12-14T13:34:02;751.30;;;160.40;;
2762;SDS011;1389;51.490;7.338;2023-12-14T13:36:29;750.70;;;159.70;;
2762;SDS011;1389;51.490;7.338;2023-12-14T13:38:55;750.85;;;159.50;;
2762;SDS011;1389;51.490;7.338;2023-12-14T13:41:22;750.50;;;159.40;;
2762;SDS011;1389;51.490;7.338;2023-12-14T13:43:48;750.40;;;159.55;;
2762;SDS011;1389;51.490;7.338;2023-12-14T13:46:17;750.30;;;159.20;;
2762;SDS011;1389;51.490;7.338;2023-12-14T13:48:44;750.40;;;159.70;;
2762;SDS011;1389;51.490;7.338;2023-12-14T13:51:12;750.13;;;158.70;;
2762;SDS011;1389;51.490;7.338;2023-12-14T13:53:59;779.88;;;180.50;;
2762;SDS011;1389;51.490;7.338;2023-12-14T13:56:25;781.30;;;181.02;;
2762;SDS011;1389;51.490;7.338;2023-12-14T13:58:53;771.40;;;164.73;;
2762;SDS011;1389;51.490;7.338;2023-12-14T14:01:20;771.00;;;164.70;;
2762;SDS011;1389;51.490;7.338;2023-12-14T14:03:47;771.15;;;164.32;;
2762;SDS011;1389;51.490;7.338;2023-12-14T14:06:14;770.83;;;163.80;;
2762;SDS011;1389;51.490;7.338;2023-12-14T14:08:40;771.22;;;164.43;;
2762;SDS011;1389;51.490;7.338;2023-12-14T14:11:07;770.20;;;163.55;;
2762;SDS011;1389;51.490;7.338;2023-12-14T14:13:33;770.80;;;164.50;;
2762;SDS011;1389;51.490;7.338;2023-12-14T14:16:00;770.72;;;164.30;;
2762;SDS011;1389;51.490;7.338;2023-12-14T14:18:26;780.70;;;180.80;;
2762;SDS011;1389;51.490;7.338;2023-12-14T14:20:53;769.50;;;163.48;;